createdAt,value
2023-05-09T00:01:10.032Z,36.86
2023-05-09T00:03:36.888Z,36.59
2023-05-09T00:06:04.673Z,36.69
2023-05-09T00:08:31.648Z,36.83
2023-05-09T00:10:58.548Z,36.81
2023-05-09T00:13:26.102Z,36.82
2023-05-09T00:15:57.575Z,36.88
2023-05-09T00:18:24.632Z,36.82
2023-05-09T00:20:51.674Z,36.86
2023-05-09T00:23:18.638Z,36.83
2023-05-09T00:25:45.791Z,36.91
2023-05-09T00:28:12.843Z,36.85
2023-05-09T00:30:41.426Z,36.84
2023-05-09T00:33:08.325Z,36.87
2023-05-09T00:35:35.641Z,36.98
2023-05-09T00:38:02.496Z,36.99
2023-05-09T00:40:29.386Z,37.05
2023-05-09T00:42:58.470Z,36.94
2023-05-09T00:45:25.503Z,37.08
2023-05-09T00:47:52.695Z,37.16
2023-05-09T00:50:19.753Z,37.22
2023-05-09T00:52:46.632Z,37.27
2023-05-09T00:55:13.680Z,37.27
2023-05-09T00:57:40.963Z,37.31
2023-05-09T01:00:13.504Z,37.30
2023-05-09T01:02:48.705Z,37.37
2023-05-09T01:05:15.976Z,37.44
2023-05-09T01:07:52.617Z,37.57
2023-05-09T01:10:32.573Z,37.73
2023-05-09T01:13:23.122Z,37.75
2023-05-09T01:16:06.561Z,37.81
2023-05-09T01:18:37.002Z,37.83
2023-05-09T01:21:09.069Z,37.83
2023-05-09T01:23:45.294Z,37.82
2023-05-09T01:26:19.541Z,37.82
2023-05-09T01:29:01.974Z,37.80
2023-05-09T01:31:29.039Z,37.84
2023-05-09T01:33:58.314Z,37.86
2023-05-09T01:36:25.473Z,37.84
2023-05-09T01:38:52.353Z,37.94
2023-05-09T01:41:19.274Z,37.97
2023-05-09T01:43:46.452Z,38.06
2023-05-09T01:46:13.621Z,38.07
2023-05-09T01:48:41.456Z,38.23
2023-05-09T01:51:10.146Z,38.34
2023-05-09T01:53:36.965Z,38.48
2023-05-09T01:56:04.566Z,38.58
2023-05-09T01:58:32.536Z,38.59
2023-05-09T02:01:00.622Z,38.66
2023-05-09T02:03:27.721Z,38.56
2023-05-09T02:05:55.084Z,38.56
2023-05-09T02:08:22.282Z,38.69
2023-05-09T02:10:49.747Z,38.73
2023-05-09T02:13:16.696Z,38.91
2023-05-09T02:15:44.366Z,39.12
2023-05-09T02:18:11.365Z,39.22
2023-05-09T02:20:38.271Z,39.29
2023-05-09T02:23:05.219Z,39.44
2023-05-09T02:25:33.306Z,39.50
2023-05-09T02:28:00.241Z,39.54
2023-05-09T02:30:27.257Z,39.58
2023-05-09T02:32:57.809Z,39.54
2023-05-09T02:35:25.498Z,39.67
2023-05-09T02:37:52.455Z,39.64
2023-05-09T02:40:20.037Z,39.69
2023-05-09T02:42:46.967Z,39.63
2023-05-09T02:45:14.019Z,39.66
2023-05-09T02:47:41.154Z,39.75
2023-05-09T02:50:08.846Z,39.69
2023-05-09T02:52:36.217Z,39.72
2023-05-09T02:55:03.577Z,39.79
2023-05-09T02:57:31.332Z,39.72
2023-05-09T02:59:58.286Z,39.73
2023-05-09T03:02:25.608Z,39.74
2023-05-09T03:04:52.727Z,39.71
2023-05-09T03:07:19.533Z,39.68
2023-05-09T03:09:46.511Z,39.74
2023-05-09T03:12:13.447Z,39.79
2023-05-09T03:14:40.376Z,39.81
2023-05-09T03:17:07.865Z,39.80
2023-05-09T03:19:35.399Z,39.66
2023-05-09T03:22:02.276Z,39.59
2023-05-09T03:24:30.997Z,39.41
2023-05-09T03:26:57.920Z,39.24
2023-05-09T03:29:25.502Z,39.07
2023-05-09T03:31:52.758Z,38.95
2023-05-09T03:34:19.960Z,38.91
2023-05-09T03:36:46.824Z,38.72
2023-05-09T03:39:14.536Z,38.57
2023-05-09T03:41:44.366Z,38.51
2023-05-09T03:44:11.494Z,38.34
2023-05-09T03:46:38.420Z,38.22
2023-05-09T03:49:05.800Z,38.18
2023-05-09T03:51:32.864Z,38.04
2023-05-09T03:54:00.630Z,37.90
2023-05-09T03:56:28.700Z,37.92
2023-05-09T03:58:55.757Z,37.89
2023-05-09T04:01:22.842Z,37.85
2023-05-09T04:03:50.429Z,37.81
2023-05-09T04:06:17.328Z,37.71
2023-05-09T04:08:44.703Z,37.88
2023-05-09T04:11:11.643Z,37.85
2023-05-09T04:13:40.561Z,37.63
2023-05-09T04:16:17.447Z,37.47
2023-05-09T04:18:44.773Z,37.30
2023-05-09T04:21:11.723Z,37.30
2023-05-09T04:23:39.494Z,37.38
2023-05-09T04:26:07.583Z,37.26
2023-05-09T04:28:35.384Z,37.33
2023-05-09T04:31:03.310Z,37.52
2023-05-09T04:33:31.086Z,37.62
2023-05-09T04:36:00.673Z,37.58
2023-05-09T04:38:27.877Z,37.69
2023-05-09T04:40:55.432Z,37.65
2023-05-09T04:43:22.319Z,37.70
2023-05-09T04:45:49.262Z,37.49
2023-05-09T04:48:16.167Z,37.27
2023-05-09T04:50:43.459Z,37.26
2023-05-09T04:53:11.297Z,37.10
2023-05-09T04:55:38.577Z,36.98
2023-05-09T04:58:06.014Z,36.82
2023-05-09T05:00:32.975Z,36.78
2023-05-09T05:03:00.062Z,36.42
2023-05-09T05:05:28.059Z,36.12
2023-05-09T05:07:55.285Z,36.00
2023-05-09T05:10:25.809Z,35.93
2023-05-09T05:12:59.294Z,36.05
2023-05-09T05:15:27.262Z,36.39
2023-05-09T05:17:54.720Z,36.32
2023-05-09T05:20:22.598Z,36.26
2023-05-09T05:22:49.754Z,36.13
2023-05-09T05:25:18.680Z,36.02
2023-05-09T05:27:46.008Z,35.84
2023-05-09T05:30:15.971Z,35.72
2023-05-09T05:32:44.063Z,35.61
2023-05-09T05:35:12.366Z,35.47
2023-05-09T05:37:40.260Z,35.49
2023-05-09T05:40:08.246Z,35.65
2023-05-09T05:42:35.802Z,35.73
2023-05-09T05:45:04.801Z,35.54
2023-05-09T05:47:33.682Z,35.21
2023-05-09T05:50:01.966Z,35.19
2023-05-09T05:52:29.742Z,35.03
2023-05-09T05:54:57.434Z,34.76
2023-05-09T05:57:24.672Z,34.46
2023-05-09T05:59:52.574Z,34.44
2023-05-09T06:02:19.500Z,34.30
2023-05-09T06:04:46.736Z,33.88
2023-05-09T06:07:14.157Z,33.63
2023-05-09T06:09:41.065Z,33.57
2023-05-09T06:12:08.369Z,33.40
2023-05-09T06:14:35.423Z,33.38
2023-05-09T06:17:02.402Z,33.10
2023-05-09T06:19:29.417Z,32.95
2023-05-09T06:21:56.543Z,32.56
2023-05-09T06:24:34.460Z,32.31
2023-05-09T06:27:04.366Z,32.18
2023-05-09T06:29:31.241Z,31.82
2023-05-09T06:31:58.215Z,31.74
2023-05-09T06:34:25.214Z,31.40
2023-05-09T06:36:52.775Z,30.88
2023-05-09T06:39:19.721Z,30.92
2023-05-09T06:41:46.798Z,30.65
2023-05-09T06:44:19.569Z,29.91
2023-05-09T06:46:46.676Z,29.51
2023-05-09T06:49:14.399Z,29.33
2023-05-09T06:51:41.352Z,29.08
2023-05-09T06:54:08.291Z,28.55
2023-05-09T06:56:35.357Z,28.47
2023-05-09T06:59:02.243Z,28.16
2023-05-09T07:01:29.284Z,27.73
2023-05-09T07:03:56.232Z,27.45
2023-05-09T07:06:23.153Z,27.35
2023-05-09T07:08:50.031Z,26.28
2023-05-09T07:11:16.995Z,25.12
2023-05-09T07:13:43.906Z,24.10
2023-05-09T07:16:10.951Z,23.00
2023-05-09T07:18:37.919Z,22.49
2023-05-09T07:21:05.091Z,22.44
2023-05-09T07:23:31.962Z,22.30
2023-05-09T07:25:59.181Z,21.95
2023-05-09T07:28:26.312Z,21.90
2023-05-09T07:30:55.634Z,21.37
2023-05-09T07:33:23.006Z,20.54
2023-05-09T07:35:49.939Z,19.28
2023-05-09T07:38:16.895Z,18.75
2023-05-09T07:40:43.839Z,18.75
2023-05-09T07:43:10.742Z,18.46
2023-05-09T07:45:37.708Z,18.03
2023-05-09T07:48:05.359Z,17.52
2023-05-09T07:50:32.360Z,16.88
2023-05-09T07:53:00.257Z,16.70
2023-05-09T07:55:27.148Z,17.29
2023-05-09T07:57:54.052Z,18.08
2023-05-09T08:00:23.919Z,18.52
2023-05-09T08:02:52.133Z,19.02
2023-05-09T08:05:19.297Z,19.20
2023-05-09T08:07:46.444Z,19.47
2023-05-09T08:10:13.382Z,20.26
2023-05-09T08:12:40.422Z,21.00
2023-05-09T08:15:08.282Z,21.61
2023-05-09T08:17:35.543Z,22.00
2023-05-09T08:20:02.543Z,22.12
2023-05-09T08:22:29.479Z,22.10
2023-05-09T08:24:56.430Z,21.90
2023-05-09T08:27:23.418Z,21.89
2023-05-09T08:29:50.649Z,21.58
2023-05-09T08:32:19.977Z,21.37
2023-05-09T08:34:46.895Z,21.43
2023-05-09T08:37:15.283Z,21.39
2023-05-09T08:39:42.728Z,21.10
2023-05-09T08:42:09.786Z,20.91
2023-05-09T08:44:36.859Z,20.90
2023-05-09T08:47:04.324Z,21.04
2023-05-09T08:49:31.277Z,21.00
2023-05-09T08:51:58.204Z,20.99
2023-05-09T08:54:25.166Z,20.81
2023-05-09T08:56:52.059Z,20.88
2023-05-09T08:59:19.746Z,20.84
2023-05-09T09:01:46.804Z,20.95
2023-05-09T09:04:13.795Z,20.78
2023-05-09T09:06:40.957Z,20.71
2023-05-09T09:09:11.270Z,20.74
2023-05-09T09:11:39.174Z,20.57
2023-05-09T09:14:11.957Z,20.57
2023-05-09T09:16:38.907Z,20.67
2023-05-09T09:19:05.909Z,20.73
2023-05-09T09:21:34.448Z,20.66
2023-05-09T09:24:01.385Z,20.71
2023-05-09T09:26:31.927Z,20.69
2023-05-09T09:28:58.854Z,20.68
2023-05-09T09:31:27.624Z,20.70
2023-05-09T09:34:01.549Z,20.47
2023-05-09T09:36:32.606Z,20.45
2023-05-09T09:39:04.817Z,20.44
2023-05-09T09:41:36.361Z,20.49
2023-05-09T09:44:16.495Z,20.45
2023-05-09T09:46:51.100Z,20.48
2023-05-09T09:49:22.478Z,20.27
2023-05-09T09:51:53.896Z,20.19
2023-05-09T09:54:21.496Z,20.25
2023-05-09T09:56:50.075Z,20.21
2023-05-09T09:59:19.775Z,19.99
2023-05-09T10:01:59.024Z,20.10
2023-05-09T10:04:31.326Z,20.02
2023-05-09T10:06:59.894Z,20.05
2023-05-09T10:09:27.571Z,20.10
2023-05-09T10:11:55.725Z,20.05
2023-05-09T10:14:24.126Z,20.20
2023-05-09T10:16:57.801Z,20.37
2023-05-09T10:19:27.313Z,20.53
2023-05-09T10:21:58.378Z,20.44
2023-05-09T10:24:47.856Z,20.41
2023-05-09T10:27:15.195Z,20.23
2023-05-09T10:29:46.964Z,20.44
2023-05-09T10:33:03.146Z,20.65
2023-05-09T10:35:33.744Z,20.61
2023-05-09T10:38:00.919Z,20.55
2023-05-09T10:40:28.492Z,20.40
2023-05-09T10:42:55.567Z,20.33
2023-05-09T10:45:22.685Z,20.43
2023-05-09T10:47:51.682Z,20.51
2023-05-09T10:50:18.964Z,20.53
2023-05-09T10:53:08.925Z,20.41
2023-05-09T10:55:36.672Z,20.42
2023-05-09T10:58:31.604Z,20.46
2023-05-09T11:00:59.386Z,20.31
2023-05-09T11:03:26.947Z,20.33
2023-05-09T11:05:58.277Z,20.43
2023-05-09T11:08:29.448Z,20.59
2023-05-09T11:11:10.829Z,20.59
2023-05-09T11:13:38.623Z,21.44
2023-05-09T11:16:09.821Z,20.90
2023-05-09T11:18:49.359Z,20.57
2023-05-09T11:21:16.429Z,20.62
2023-05-09T11:23:43.241Z,20.63
2023-05-09T11:26:10.227Z,20.74
2023-05-09T11:28:37.912Z,20.73
2023-05-09T11:31:15.159Z,20.78
2023-05-09T11:33:43.241Z,20.66
2023-05-09T11:36:32.082Z,20.48
2023-05-09T11:39:06.577Z,20.57
2023-05-09T11:42:00.068Z,20.58
2023-05-09T11:44:27.983Z,20.51
2023-05-09T11:46:55.514Z,20.69
2023-05-09T11:49:22.429Z,20.82
2023-05-09T11:51:49.294Z,20.99
2023-05-09T11:54:16.312Z,20.98
2023-05-09T11:56:43.174Z,20.92
2023-05-09T11:59:13.279Z,20.93
2023-05-09T12:01:40.296Z,21.02
2023-05-09T12:04:08.622Z,21.16
2023-05-09T12:06:35.689Z,21.19
2023-05-09T12:09:02.706Z,21.46
2023-05-09T12:11:32.529Z,21.65
2023-05-09T12:13:59.511Z,21.59
2023-05-09T12:16:26.480Z,21.64
2023-05-09T12:18:53.482Z,21.59
2023-05-09T12:21:20.848Z,21.63
2023-05-09T12:23:50.725Z,21.76
2023-05-09T12:26:18.799Z,21.53
2023-05-09T12:28:46.060Z,21.55
2023-05-09T12:31:13.278Z,21.55
2023-05-09T12:33:40.253Z,21.63
2023-05-09T12:36:12.603Z,21.58
2023-05-09T12:38:39.505Z,21.31
2023-05-09T12:41:12.994Z,21.20
2023-05-09T12:43:49.449Z,21.20
2023-05-09T12:46:20.269Z,21.28
2023-05-09T12:48:48.398Z,21.55
2023-05-09T12:51:20.372Z,21.81
2023-05-09T12:53:47.220Z,21.89
2023-05-09T12:56:16.591Z,22.11
2023-05-09T12:58:51.449Z,22.29
2023-05-09T13:01:22.922Z,22.39
2023-05-09T13:03:53.843Z,22.64
2023-05-09T13:06:21.349Z,22.72
2023-05-09T13:09:00.590Z,22.67
2023-05-09T13:11:27.517Z,22.48
2023-05-09T13:13:55.205Z,22.25
2023-05-09T13:16:22.336Z,22.14
2023-05-09T13:18:49.254Z,22.01
2023-05-09T13:21:16.394Z,21.95
2023-05-09T13:23:44.679Z,21.98
2023-05-09T13:26:11.591Z,22.06
2023-05-09T13:28:38.489Z,22.01
2023-05-09T13:31:05.492Z,21.81
2023-05-09T13:33:32.485Z,21.85
2023-05-09T13:35:59.342Z,21.82
2023-05-09T13:38:26.409Z,21.91
2023-05-09T13:40:53.404Z,21.95
2023-05-09T13:43:20.298Z,22.08
2023-05-09T13:45:47.256Z,22.29
2023-05-09T13:48:14.390Z,22.27
2023-05-09T13:50:41.609Z,22.36
2023-05-09T13:53:08.607Z,22.38
2023-05-09T13:55:35.767Z,22.41
2023-05-09T13:58:02.710Z,22.56
2023-05-09T14:00:29.663Z,22.43
2023-05-09T14:02:56.541Z,22.31
2023-05-09T14:05:23.576Z,22.12
2023-05-09T14:07:50.504Z,22.16
2023-05-09T14:10:17.903Z,22.15
2023-05-09T14:12:46.851Z,22.21
2023-05-09T14:15:14.156Z,22.23
2023-05-09T14:17:41.565Z,22.21
2023-05-09T14:20:09.286Z,22.19
2023-05-09T14:22:36.145Z,22.44
2023-05-09T14:25:02.974Z,22.72
2023-05-09T14:27:30.230Z,22.80
2023-05-09T14:29:57.687Z,22.69
2023-05-09T14:32:25.461Z,22.65
2023-05-09T14:34:52.307Z,22.65
2023-05-09T14:37:19.268Z,22.78
2023-05-09T14:39:47.030Z,23.00
2023-05-09T14:42:14.498Z,23.30
2023-05-09T14:44:41.878Z,23.52
2023-05-09T14:47:09.974Z,23.41
2023-05-09T14:49:37.998Z,23.34
2023-05-09T14:52:05.671Z,23.35
2023-05-09T14:54:32.823Z,23.44
2023-05-09T14:57:02.108Z,23.58
2023-05-09T14:59:29.724Z,23.62
2023-05-09T15:01:56.557Z,23.72
2023-05-09T15:04:25.751Z,23.78
2023-05-09T15:06:52.687Z,23.80
2023-05-09T15:09:19.711Z,23.93
2023-05-09T15:11:48.864Z,23.90
2023-05-09T15:14:16.943Z,23.84
2023-05-09T15:16:44.372Z,23.81
2023-05-09T15:19:11.510Z,23.69
2023-05-09T15:21:38.550Z,23.51
2023-05-09T15:24:06.366Z,23.42
2023-05-09T15:26:33.333Z,23.30
2023-05-09T15:29:00.163Z,23.45
2023-05-09T15:31:31.748Z,23.61
2023-05-09T15:33:58.819Z,23.85
2023-05-09T15:36:25.686Z,23.94
2023-05-09T15:38:53.004Z,24.05
2023-05-09T15:41:20.061Z,24.11
2023-05-09T15:43:47.010Z,23.93
2023-05-09T15:46:14.110Z,23.89
2023-05-09T15:48:41.210Z,23.99
2023-05-09T15:51:09.686Z,23.97
2023-05-09T15:53:36.577Z,24.08
2023-05-09T15:56:03.925Z,24.18
2023-05-09T15:58:30.906Z,24.12
2023-05-09T16:00:57.826Z,24.14
2023-05-09T16:03:25.193Z,24.12
2023-05-09T16:05:52.443Z,24.19
2023-05-09T16:08:19.256Z,24.27
2023-05-09T16:10:49.252Z,24.28
2023-05-09T16:13:19.088Z,24.34
2023-05-09T16:15:48.234Z,24.29
2023-05-09T16:18:15.220Z,24.32
2023-05-09T16:20:44.218Z,24.49
2023-05-09T16:23:11.639Z,24.43
2023-05-09T16:25:38.768Z,24.52
2023-05-09T16:28:07.316Z,24.90
2023-05-09T16:30:34.709Z,24.97
2023-05-09T16:33:01.638Z,25.03
2023-05-09T16:35:29.051Z,25.03
2023-05-09T16:37:55.989Z,25.11
2023-05-09T16:40:23.038Z,25.12
2023-05-09T16:42:50.008Z,25.09
2023-05-09T16:45:17.076Z,25.35
2023-05-09T16:47:43.975Z,25.46
2023-05-09T16:50:11.270Z,25.54
2023-05-09T16:52:38.152Z,25.72
2023-05-09T16:55:05.938Z,25.71
2023-05-09T16:57:33.440Z,25.75
2023-05-09T17:00:00.442Z,26.02
2023-05-09T17:02:27.548Z,26.20
2023-05-09T17:04:54.909Z,26.29
2023-05-09T17:07:21.872Z,26.43
2023-05-09T17:09:49.764Z,26.51
2023-05-09T17:12:18.598Z,26.53
2023-05-09T17:14:46.857Z,26.69
2023-05-09T17:17:14.808Z,26.93
2023-05-09T17:19:41.681Z,27.20
2023-05-09T17:22:08.859Z,27.49
2023-05-09T17:24:35.766Z,27.85
2023-05-09T17:27:02.837Z,27.99
2023-05-09T17:29:30.816Z,28.23
2023-05-09T17:32:00.979Z,28.27
2023-05-09T17:34:28.585Z,28.28
2023-05-09T17:36:55.447Z,28.30
2023-05-09T17:39:23.031Z,28.19
2023-05-09T17:41:49.918Z,28.23
2023-05-09T17:44:16.868Z,28.26
2023-05-09T17:46:44.173Z,28.26
2023-05-09T17:49:14.130Z,28.22
2023-05-09T17:51:41.275Z,28.19
2023-05-09T17:54:08.194Z,28.19
2023-05-09T17:56:35.106Z,28.17
2023-05-09T17:59:02.059Z,28.30
2023-05-09T18:01:29.236Z,28.47
2023-05-09T18:03:57.243Z,28.69
2023-05-09T18:06:24.392Z,28.91
2023-05-09T18:08:51.526Z,28.89
2023-05-09T18:11:18.350Z,28.94
2023-05-09T18:13:45.179Z,28.79
2023-05-09T18:16:12.166Z,28.68
2023-05-09T18:18:39.302Z,28.61
2023-05-09T18:21:08.129Z,28.73
2023-05-09T18:23:35.149Z,28.71
2023-05-09T18:26:02.197Z,28.86
2023-05-09T18:28:29.053Z,28.80
2023-05-09T18:30:57.745Z,28.97
2023-05-09T18:33:27.083Z,29.23
2023-05-09T18:35:54.476Z,29.21
2023-05-09T18:38:21.683Z,29.49
2023-05-09T18:40:48.735Z,29.53
2023-05-09T18:43:17.103Z,29.61
2023-05-09T18:45:45.195Z,29.47
2023-05-09T18:48:12.650Z,29.28
2023-05-09T18:50:40.315Z,29.12
2023-05-09T18:53:07.718Z,29.19
2023-05-09T18:55:34.724Z,29.31
2023-05-09T18:58:01.672Z,29.46
2023-05-09T19:00:28.554Z,29.59
2023-05-09T19:02:55.487Z,29.63
2023-05-09T19:05:22.631Z,29.55
2023-05-09T19:07:49.825Z,29.65
2023-05-09T19:10:18.286Z,29.69
2023-05-09T19:12:46.261Z,29.70
2023-05-09T19:15:13.307Z,29.70
2023-05-09T19:17:40.482Z,29.70
2023-05-09T19:20:08.751Z,29.77
2023-05-09T19:22:36.333Z,29.87
2023-05-09T19:25:03.189Z,29.97
2023-05-09T19:27:29.985Z,30.06
2023-05-09T19:29:56.974Z,30.21
2023-05-09T19:32:23.819Z,30.27
2023-05-09T19:34:50.725Z,30.43
2023-05-09T19:37:17.710Z,30.47
2023-05-09T19:39:44.656Z,30.59
2023-05-09T19:42:11.613Z,30.72
2023-05-09T19:44:39.098Z,30.74
2023-05-09T19:47:06.135Z,30.78
2023-05-09T19:49:33.192Z,30.82
2023-05-09T19:52:00.147Z,30.90
2023-05-09T19:54:27.235Z,30.90
2023-05-09T19:56:54.421Z,31.02
2023-05-09T19:59:21.393Z,31.01
2023-05-09T20:01:48.422Z,30.98
2023-05-09T20:04:16.554Z,30.96
2023-05-09T20:06:43.483Z,30.97
2023-05-09T20:09:10.357Z,30.97
2023-05-09T20:11:37.274Z,30.92
2023-05-09T20:14:04.126Z,30.96
2023-05-09T20:16:31.126Z,31.01
2023-05-09T20:18:58.658Z,31.04
2023-05-09T20:21:27.321Z,31.05
2023-05-09T20:23:54.157Z,31.14
2023-05-09T20:26:24.455Z,31.22
2023-05-09T20:28:54.588Z,31.34
2023-05-09T20:31:21.390Z,31.34
2023-05-09T20:33:48.189Z,31.44
2023-05-09T20:36:15.524Z,31.52
2023-05-09T20:38:42.430Z,31.53
2023-05-09T20:41:09.284Z,31.56
2023-05-09T20:43:36.395Z,31.59
2023-05-09T20:46:03.428Z,31.65
2023-05-09T20:48:30.351Z,31.55
2023-05-09T20:50:57.220Z,31.62
2023-05-09T20:53:26.614Z,31.59
2023-05-09T20:55:53.864Z,31.58
2023-05-09T20:58:20.698Z,31.59
2023-05-09T21:00:47.923Z,31.72
2023-05-09T21:03:15.035Z,31.79
2023-05-09T21:05:41.968Z,31.75
2023-05-09T21:08:08.839Z,31.77
2023-05-09T21:10:35.645Z,31.67
2023-05-09T21:13:02.534Z,31.68
2023-05-09T21:15:29.346Z,31.75
2023-05-09T21:17:56.187Z,31.73
2023-05-09T21:20:23.061Z,31.76
2023-05-09T21:22:49.912Z,31.82
2023-05-09T21:25:17.642Z,31.85
2023-05-09T21:27:44.562Z,31.89
2023-05-09T21:30:11.895Z,31.99
2023-05-09T21:32:38.726Z,32.00
2023-05-09T21:35:10.806Z,32.06
2023-05-09T21:37:37.762Z,32.20
2023-05-09T21:40:05.962Z,32.28
2023-05-09T21:42:32.983Z,32.37
2023-05-09T21:44:59.821Z,32.49
2023-05-09T21:47:27.229Z,32.51
2023-05-09T21:49:54.858Z,32.70
2023-05-09T21:52:23.685Z,32.73
2023-05-09T21:54:50.558Z,32.83
2023-05-09T21:57:17.451Z,32.87
2023-05-09T21:59:44.531Z,33.00
2023-05-09T22:02:11.434Z,33.13
2023-05-09T22:04:40.321Z,33.26
2023-05-09T22:07:07.538Z,33.25
2023-05-09T22:09:34.869Z,33.29
2023-05-09T22:12:01.741Z,33.51
2023-05-09T22:14:28.669Z,33.55
2023-05-09T22:16:55.497Z,33.66
2023-05-09T22:19:22.368Z,33.74
2023-05-09T22:21:49.467Z,33.83
2023-05-09T22:24:16.375Z,33.98
2023-05-09T22:26:43.427Z,33.97
2023-05-09T22:29:10.587Z,34.08
2023-05-09T22:31:37.425Z,34.16
2023-05-09T22:34:04.376Z,34.19
2023-05-09T22:36:32.358Z,34.21
2023-05-09T22:38:59.307Z,34.31
2023-05-09T22:41:26.367Z,34.36
2023-05-09T22:43:53.210Z,34.46
2023-05-09T22:46:20.260Z,34.52
2023-05-09T22:48:47.211Z,34.56
2023-05-09T22:51:15.199Z,34.58
2023-05-09T22:53:42.169Z,34.62
2023-05-09T22:56:09.601Z,34.62
2023-05-09T22:58:36.760Z,34.78
2023-05-09T23:01:04.035Z,34.84
2023-05-09T23:03:31.012Z,34.91
2023-05-09T23:05:57.921Z,34.90
2023-05-09T23:08:24.880Z,34.94
2023-05-09T23:10:51.778Z,34.98
2023-05-09T23:13:18.691Z,34.96
2023-05-09T23:15:47.108Z,35.03
2023-05-09T23:18:14.152Z,35.15
2023-05-09T23:20:41.021Z,35.30
2023-05-09T23:23:07.908Z,35.40
2023-05-09T23:25:34.756Z,35.46
2023-05-09T23:28:01.620Z,35.48
2023-05-09T23:30:28.461Z,35.54
2023-05-09T23:32:56.464Z,35.60
2023-05-09T23:35:23.720Z,35.65
2023-05-09T23:37:50.748Z,35.69
2023-05-09T23:40:17.914Z,35.74
2023-05-09T23:42:44.959Z,35.79
2023-05-09T23:45:12.890Z,35.75
2023-05-09T23:47:39.794Z,35.75
2023-05-09T23:50:07.755Z,35.79
2023-05-09T23:52:34.732Z,35.94
2023-05-09T23:55:02.070Z,35.96
2023-05-09T23:57:29.012Z,36.08
2023-05-09T23:59:55.806Z,36.14
